Roma, Sweden

7:54 PM CEST on March 29, 2015 (GMT +0200)
Endre | | Change Station
CLOSE
Current Station
Personal Weather Station
Location: Visby, GOTLANDS LäN
Elevation: 151 ft
Nearby Weather Stations

Elev 151 ft 57.61 °N, 18.48 °E | Updated 3 seconds ago

Overcast
Overcast
40.3 °F
Feels Like 36 °F
N
6.5
Wind Variable Wind from South
Gusts 7.4 mph

Today
High -- | Low -- °F
--% Chance of Precip.
Yesterday
High -- | Low -- °F
Precip. -- in
6:24 AM 7:18 PM
Waxing Gibbous, 73% visible
Pressure 29.18 in
Visibility 1.1 miles
Clouds Overcast 200 ft
Windchill 36 °F
Dew Point 40 °F
Humidity 99%
Rainfall 0.09 in
Snow Depth Not available.
UV 0 out of 12
Pollen Not available.
Air Quality Not available.
Flu Activity Not available.
METAR ESSV 291750Z 19011KT 1700 OVC002 05/05 Q0988 R21/29//52

More Conditions Fewer Conditions

Pressure 29.18 in
Visibility 1.1 miles
Clouds Overcast 200 ft
Windchill 36 °F
Dew Point 40 °F
Humidity 99%
Rainfall 0.09 in
Snow Depth Not available.
UV 0 out of 12
Pollen Not available.
Air Quality Not available.
Flu Activity Not available.
METAR ESSV 291750Z 19011KT 1700 OVC002 05/05 Q0988 R21/29//52

More Conditions Fewer Conditions

10-Day Weather Forecast

Almanac

Astronomy

Mar. 29, 2015 Rise Set
Actual Time
Civil Twilight
Nautical Twilight
Astronomical Twilight
Moon
Length of Visible Light
Length of Day
Tomorrow will be .
, % of the Moon is Illuminated

Today's Extremes

Country Highs Country Lows

Community

WunderPhotos

Upload Photos

1,809,307 photos uploaded!

WunderBlogs® & News

Nearby

Air Quality

  Air Quality AQ Index Pollutant
Not available.

Snow Depth

Station Depth Elevation

Earthquake Activity

City Distance Mag. Time & Date
Minimum magnitude displayed is 2.5.

Coastal Water Temperatures

Place Temperature

Stations

Nearby Weather Stations

Station Location Temp. Windchill Dew Point Humidity Wind Precip. Elev Updated Type